createdAt,value
2023-05-21T00:00:11.638Z,0.00
2023-05-21T00:01:11.632Z,0.00
2023-05-21T00:02:11.646Z,0.00
2023-05-21T00:03:11.703Z,0.00
2023-05-21T00:04:11.720Z,0.00
2023-05-21T00:05:14.375Z,0.00
2023-05-21T00:06:12.674Z,0.00
2023-05-21T00:07:11.582Z,0.00
2023-05-21T00:08:11.558Z,0.00
2023-05-21T00:09:11.584Z,0.00
2023-05-21T00:10:11.610Z,0.00
2023-05-21T00:11:11.571Z,0.00
2023-05-21T00:12:11.532Z,0.00
2023-05-21T00:13:11.515Z,0.00
2023-05-21T00:14:11.558Z,0.00
2023-05-21T00:15:11.527Z,0.00
2023-05-21T00:16:11.631Z,0.00
2023-05-21T00:17:11.500Z,0.00
2023-05-21T00:18:11.557Z,0.00
2023-05-21T00:19:11.505Z,0.00
2023-05-21T00:20:11.485Z,0.00
2023-05-21T00:21:11.490Z,0.00
2023-05-21T00:22:11.444Z,0.00
2023-05-21T00:23:11.449Z,0.00
2023-05-21T00:24:11.470Z,0.00
2023-05-21T00:25:11.449Z,0.00
2023-05-21T00:26:11.457Z,0.00
2023-05-21T00:27:11.441Z,0.00
2023-05-21T00:28:11.401Z,0.00
2023-05-21T00:29:11.406Z,0.00
2023-05-21T00:30:11.429Z,0.00
2023-05-21T00:31:11.441Z,0.00
2023-05-21T00:32:11.426Z,0.00
2023-05-21T00:33:11.405Z,0.00
2023-05-21T00:34:11.356Z,0.00
2023-05-21T00:35:11.397Z,0.00
2023-05-21T00:36:11.380Z,0.00
2023-05-21T00:37:11.358Z,0.00
2023-05-21T00:38:11.311Z,0.00
2023-05-21T00:39:11.330Z,0.00
2023-05-21T00:40:11.341Z,0.00
2023-05-21T00:41:11.281Z,0.00
2023-05-21T00:42:11.310Z,0.00
2023-05-21T00:43:11.304Z,0.00
2023-05-21T00:44:11.274Z,0.00
2023-05-21T00:45:11.309Z,0.00
2023-05-21T00:46:11.362Z,0.00
2023-05-21T00:47:11.290Z,0.00
2023-05-21T00:48:11.222Z,0.00
2023-05-21T00:49:11.284Z,0.00
2023-05-21T00:50:11.227Z,0.00
2023-05-21T00:51:11.246Z,0.00
2023-05-21T00:52:11.224Z,0.00
2023-05-21T00:53:11.187Z,0.00
2023-05-21T00:54:11.224Z,0.00
2023-05-21T00:55:11.215Z,0.00
2023-05-21T00:56:11.174Z,0.00
2023-05-21T00:57:11.190Z,0.00
2023-05-21T00:58:11.151Z,0.00
2023-05-21T00:59:11.161Z,0.00
2023-05-21T01:00:11.259Z,0.00
2023-05-21T01:01:11.270Z,0.00
2023-05-21T01:02:11.249Z,0.00
2023-05-21T01:03:11.334Z,0.00
2023-05-21T01:04:11.110Z,0.00
2023-05-21T01:05:11.127Z,0.00
2023-05-21T01:06:11.089Z,0.00
2023-05-21T01:07:11.096Z,0.00
2023-05-21T01:08:11.101Z,0.00
2023-05-21T01:09:11.111Z,0.00
2023-05-21T01:10:11.100Z,0.00
2023-05-21T01:11:11.064Z,0.00
2023-05-21T01:12:11.066Z,0.00
2023-05-21T01:13:11.100Z,0.00
2023-05-21T01:14:11.073Z,0.00
2023-05-21T01:15:11.041Z,0.00
2023-05-21T01:16:11.030Z,0.00
2023-05-21T01:17:11.205Z,0.00
2023-05-21T01:18:11.026Z,0.00
2023-05-21T01:19:11.151Z,0.00
2023-05-21T01:20:43.467Z,0.00
2023-05-21T01:21:10.966Z,0.00
2023-05-21T01:22:43.522Z,0.00
2023-05-21T01:23:43.397Z,0.00
2023-05-21T01:24:10.937Z,0.00
2023-05-21T01:25:43.572Z,0.00
2023-05-21T01:26:42.894Z,0.00
2023-05-21T01:27:10.941Z,0.00
2023-05-21T01:28:10.920Z,0.00
2023-05-21T01:29:10.925Z,0.00
2023-05-21T01:30:10.930Z,0.00
2023-05-21T01:31:10.882Z,0.00
2023-05-21T01:32:10.880Z,0.00
2023-05-21T01:33:11.099Z,0.00
2023-05-21T01:34:10.966Z,0.00
2023-05-21T01:35:10.865Z,0.00
2023-05-21T01:36:11.858Z,0.00
2023-05-21T01:37:10.907Z,0.00
2023-05-21T01:38:10.821Z,0.00
2023-05-21T01:39:10.889Z,0.00
2023-05-21T01:40:11.872Z,0.00
2023-05-21T01:41:10.884Z,0.00
2023-05-21T01:42:10.814Z,0.00
2023-05-21T01:43:10.797Z,0.00
2023-05-21T01:44:10.800Z,0.00
2023-05-21T01:45:10.827Z,0.00
2023-05-21T01:46:10.829Z,0.00
2023-05-21T01:47:10.766Z,0.00
2023-05-21T01:48:10.788Z,0.00
2023-05-21T01:49:10.776Z,0.00
2023-05-21T01:50:10.805Z,0.00
2023-05-21T01:51:10.792Z,0.00
2023-05-21T01:52:10.766Z,0.00
2023-05-21T01:53:10.730Z,0.00
2023-05-21T01:54:10.722Z,0.00
2023-05-21T01:55:10.706Z,0.00
2023-05-21T01:56:10.734Z,0.00
2023-05-21T01:57:10.727Z,0.00
2023-05-21T01:58:10.697Z,0.00
2023-05-21T01:59:10.727Z,0.00
2023-05-21T02:00:10.701Z,0.00
2023-05-21T02:01:11.250Z,0.00
2023-05-21T02:02:10.862Z,0.00
2023-05-21T02:03:10.804Z,0.00
2023-05-21T02:04:10.680Z,0.00
2023-05-21T02:05:10.616Z,0.00
2023-05-21T02:06:10.650Z,0.00
2023-05-21T02:07:10.625Z,0.00
2023-05-21T02:08:10.620Z,0.00
2023-05-21T02:09:10.592Z,0.00
2023-05-21T02:10:10.607Z,0.00
2023-05-21T02:11:10.628Z,0.00
2023-05-21T02:12:10.578Z,0.00
2023-05-21T02:13:10.562Z,0.00
2023-05-21T02:14:10.584Z,0.00
2023-05-21T02:15:10.546Z,0.00
2023-05-21T02:16:10.598Z,0.00
2023-05-21T02:17:10.530Z,0.00
2023-05-21T02:18:10.590Z,0.00
2023-05-21T02:19:10.631Z,0.00
2023-05-21T02:20:10.574Z,0.00
2023-05-21T02:21:10.511Z,0.00
2023-05-21T02:22:10.530Z,0.00
2023-05-21T02:23:10.495Z,0.00
2023-05-21T02:24:10.471Z,0.00
2023-05-21T02:25:10.490Z,0.00
2023-05-21T02:26:10.516Z,0.00
2023-05-21T02:27:10.484Z,0.00
2023-05-21T02:28:10.502Z,0.00
2023-05-21T02:29:10.466Z,0.00
2023-05-21T02:30:10.446Z,0.00
2023-05-21T02:31:10.450Z,0.00
2023-05-21T02:32:10.467Z,0.00
2023-05-21T02:33:10.447Z,0.00
2023-05-21T02:34:10.501Z,0.00
2023-05-21T02:35:10.463Z,0.00
2023-05-21T02:36:11.241Z,0.00
2023-05-21T02:37:10.630Z,0.00
2023-05-21T02:38:10.416Z,0.00
2023-05-21T02:39:10.459Z,0.00
2023-05-21T02:40:10.430Z,0.00
2023-05-21T02:41:11.259Z,0.00
2023-05-21T02:42:10.432Z,0.00
2023-05-21T02:43:10.392Z,0.00
2023-05-21T02:44:10.416Z,0.00
2023-05-21T02:45:10.491Z,0.00
2023-05-21T02:46:10.404Z,0.00
2023-05-21T02:47:10.421Z,0.00
2023-05-21T02:48:10.372Z,0.00
2023-05-21T02:49:10.303Z,0.00
2023-05-21T02:50:10.350Z,0.00
2023-05-21T02:51:10.282Z,4.00
2023-05-21T02:52:10.318Z,4.00
2023-05-21T02:53:10.289Z,4.00
2023-05-21T02:54:10.273Z,4.00
2023-05-21T02:55:10.266Z,0.00
2023-05-21T02:56:10.302Z,4.00
2023-05-21T02:57:10.249Z,4.00
2023-05-21T02:58:11.265Z,8.00
2023-05-21T02:59:10.202Z,4.00
2023-05-21T03:00:10.208Z,8.00
2023-05-21T03:01:10.317Z,4.00
2023-05-21T03:02:10.232Z,8.00
2023-05-21T03:03:10.271Z,8.00
2023-05-21T03:04:10.225Z,8.00
2023-05-21T03:05:10.208Z,8.00
2023-05-21T03:06:10.144Z,12.00
2023-05-21T03:07:10.197Z,16.00
2023-05-21T03:08:10.167Z,16.00
2023-05-21T03:09:10.736Z,20.00
2023-05-21T03:10:10.117Z,24.00
2023-05-21T03:11:10.152Z,24.00
2023-05-21T03:12:10.100Z,28.00
2023-05-21T03:13:10.220Z,32.00
2023-05-21T03:14:10.103Z,36.00
2023-05-21T03:15:10.135Z,40.00
2023-05-21T03:16:10.194Z,44.00
2023-05-21T03:17:10.816Z,48.00
2023-05-21T03:18:10.147Z,56.00
2023-05-21T03:19:10.157Z,60.00
2023-05-21T03:20:10.109Z,68.00
2023-05-21T03:21:10.077Z,76.00
2023-05-21T03:22:10.077Z,80.00
2023-05-21T03:23:10.064Z,84.00
2023-05-21T03:24:09.995Z,92.00
2023-05-21T03:25:10.027Z,100.00
2023-05-21T03:26:10.021Z,108.00
2023-05-21T03:27:09.986Z,116.00
2023-05-21T03:28:09.999Z,128.00
2023-05-21T03:29:09.992Z,140.00
2023-05-21T03:30:10.781Z,152.00
2023-05-21T03:31:09.959Z,168.00
2023-05-21T03:32:10.012Z,180.00
2023-05-21T03:33:09.951Z,196.00
2023-05-21T03:34:09.919Z,212.00
2023-05-21T03:35:09.922Z,236.00
2023-05-21T03:36:09.946Z,256.00
2023-05-21T03:37:09.909Z,276.00
2023-05-21T03:38:09.891Z,292.00
2023-05-21T03:39:09.934Z,316.00
2023-05-21T03:40:09.891Z,336.00
2023-05-21T03:41:09.910Z,356.00
2023-05-21T03:42:09.904Z,380.00
2023-05-21T03:43:09.947Z,396.00
2023-05-21T03:44:09.906Z,420.00
2023-05-21T03:45:09.862Z,440.00
2023-05-21T03:46:09.918Z,460.00
2023-05-21T04:02:46.128Z,808.00
2023-05-21T04:03:46.220Z,832.00
2023-05-21T04:04:46.161Z,856.00
2023-05-21T04:05:45.993Z,884.00
2023-05-21T04:06:46.000Z,912.00
2023-05-21T04:07:45.984Z,944.00
2023-05-21T04:08:46.033Z,972.00
2023-05-21T04:09:45.982Z,1004.00
2023-05-21T04:10:45.992Z,1036.00
2023-05-21T04:11:47.127Z,1072.00
2023-05-21T04:12:47.135Z,1100.00
2023-05-21T04:13:47.144Z,1132.00
2023-05-21T04:14:47.129Z,1152.00
2023-05-21T04:15:47.147Z,1180.00
2023-05-21T04:16:47.095Z,1204.00
2023-05-21T04:17:47.185Z,1232.00
2023-05-21T04:18:47.202Z,1256.00
2023-05-21T04:19:47.108Z,1284.00
2023-05-21T04:20:47.114Z,1312.00
2023-05-21T04:21:47.082Z,1344.00
2023-05-21T04:22:47.037Z,1368.00
2023-05-21T04:23:47.085Z,1400.00
2023-05-21T04:24:47.035Z,1428.00
2023-05-21T04:25:47.212Z,1460.00
2023-05-21T04:26:47.010Z,1492.00
2023-05-21T04:27:46.985Z,1524.00
2023-05-21T04:28:47.013Z,1556.00
2023-05-21T04:29:48.467Z,1592.00
2023-05-21T04:30:47.036Z,1632.00
2023-05-21T04:31:50.467Z,1672.00
2023-05-21T04:32:48.046Z,1716.00
2023-05-21T04:33:46.988Z,1760.00
2023-05-21T04:34:47.773Z,1804.00
2023-05-21T04:35:46.968Z,1856.00
2023-05-21T04:36:47.682Z,1908.00
2023-05-21T04:37:46.914Z,1964.00
2023-05-21T04:38:47.617Z,2024.00
2023-05-21T04:39:47.031Z,2084.00
2023-05-21T04:40:46.905Z,2148.00
2023-05-21T04:41:46.921Z,2216.00
2023-05-21T04:42:46.898Z,2288.00
2023-05-21T04:43:46.864Z,2364.00
2023-05-21T04:44:46.888Z,2444.00
2023-05-21T04:45:46.893Z,2528.00
2023-05-21T04:46:46.866Z,2612.00
2023-05-21T04:47:46.896Z,2692.00
2023-05-21T04:48:47.849Z,2780.00
2023-05-21T04:49:46.812Z,2860.00
2023-05-21T04:50:46.917Z,2944.00
2023-05-21T04:51:46.834Z,3036.00
2023-05-21T04:52:46.833Z,3128.00
2023-05-21T04:53:46.891Z,3220.00
2023-05-21T04:54:48.249Z,3312.00
2023-05-21T04:55:46.774Z,3396.00
2023-05-21T04:56:46.758Z,3484.00
2023-05-21T04:57:46.756Z,3576.00
2023-05-21T04:58:46.773Z,3668.00
2023-05-21T04:59:46.784Z,3756.00
2023-05-21T05:00:47.005Z,3836.00
2023-05-21T05:01:46.786Z,3908.00
2023-05-21T05:02:46.855Z,3972.00
2023-05-21T05:03:46.732Z,4044.00
2023-05-21T05:04:46.767Z,4132.00
2023-05-21T05:05:46.721Z,4220.00
2023-05-21T05:06:47.292Z,4304.00
2023-05-21T05:07:46.706Z,4372.00
2023-05-21T05:08:46.728Z,4436.00
2023-05-21T05:09:46.790Z,4492.00
2023-05-21T05:10:46.786Z,4564.00
2023-05-21T05:11:46.665Z,4628.00
2023-05-21T05:12:46.661Z,4720.00
2023-05-21T05:13:46.673Z,4816.00
2023-05-21T05:14:46.684Z,4912.00
2023-05-21T05:15:48.697Z,5020.00
2023-05-21T05:16:47.717Z,5132.00
2023-05-21T05:17:46.669Z,5304.00
2023-05-21T05:18:47.408Z,5516.00
2023-05-21T05:19:47.330Z,5852.00
2023-05-21T05:20:46.670Z,6084.00
2023-05-21T05:21:47.336Z,6100.00
2023-05-21T05:22:46.584Z,6220.00
2023-05-21T05:23:46.580Z,6784.00
2023-05-21T05:24:46.568Z,7164.00
2023-05-21T05:25:46.554Z,6836.00
2023-05-21T05:26:46.610Z,6496.00
2023-05-21T05:27:46.583Z,6340.00
2023-05-21T05:28:46.548Z,6368.00
2023-05-21T05:29:46.510Z,6572.00
2023-05-21T05:30:46.736Z,6640.00
2023-05-21T05:31:46.538Z,6964.00
2023-05-21T05:32:46.545Z,7892.00
2023-05-21T05:33:46.543Z,8292.00
2023-05-21T05:34:46.484Z,7356.00
2023-05-21T05:35:46.540Z,7232.00
2023-05-21T05:36:46.477Z,7384.00
2023-05-21T05:37:46.470Z,7676.00
2023-05-21T05:38:49.263Z,8236.00
2023-05-21T05:40:19.199Z,8464.00
2023-05-21T05:40:46.475Z,8500.00
2023-05-21T05:41:46.393Z,9396.00
2023-05-21T05:42:47.430Z,10484.00
2023-05-21T05:43:46.421Z,11956.00
2023-05-21T05:44:46.823Z,11420.00
2023-05-21T05:45:46.403Z,11380.00
2023-05-21T05:46:47.359Z,9896.00
2023-05-21T05:47:46.425Z,9280.00
2023-05-21T05:48:46.416Z,8968.00
2023-05-21T05:49:46.388Z,9092.00
2023-05-21T05:50:46.344Z,8960.00
2023-05-21T05:51:46.385Z,8828.00
2023-05-21T05:52:46.382Z,8708.00
2023-05-21T05:53:46.386Z,8676.00
2023-05-21T05:54:46.420Z,8712.00
2023-05-21T05:55:47.474Z,8700.00
2023-05-21T05:56:47.123Z,8420.00
2023-05-21T05:57:46.285Z,8372.00
2023-05-21T05:58:46.622Z,8508.00
2023-05-21T05:59:46.372Z,9012.00
2023-05-21T06:00:46.262Z,12160.00
2023-05-21T06:01:46.460Z,16032.00
2023-05-21T06:02:46.348Z,12344.00
2023-05-21T06:03:46.837Z,11348.00
2023-05-21T06:04:46.319Z,10452.00
2023-05-21T06:05:46.237Z,9996.00
2023-05-21T06:06:46.251Z,10032.00
2023-05-21T06:07:46.316Z,9968.00
2023-05-21T06:08:46.270Z,9948.00
2023-05-21T06:09:46.247Z,10076.00
2023-05-21T06:10:46.775Z,9936.00
2023-05-21T06:11:46.196Z,10524.00
2023-05-21T06:12:46.246Z,10792.00
2023-05-21T06:13:46.260Z,9608.00
2023-05-21T06:14:46.176Z,9076.00
2023-05-21T06:15:46.278Z,8800.00
2023-05-21T06:16:46.230Z,8440.00
2023-05-21T06:17:46.251Z,8200.00
2023-05-21T06:18:46.648Z,8112.00
2023-05-21T06:19:46.165Z,8024.00
2023-05-21T06:20:46.477Z,7956.00
2023-05-21T06:21:46.988Z,7952.00
2023-05-21T06:22:46.129Z,7996.00
2023-05-21T06:23:46.623Z,8136.00
2023-05-21T06:24:46.086Z,8344.00
2023-05-21T06:25:46.119Z,8688.00
2023-05-21T06:26:46.086Z,8304.00
2023-05-21T06:27:46.103Z,7996.00
2023-05-21T06:28:46.138Z,7936.00
2023-05-21T06:29:46.064Z,7976.00
2023-05-21T06:30:46.067Z,8092.00
2023-05-21T06:31:46.078Z,8280.00
2023-05-21T06:32:47.140Z,8536.00
2023-05-21T06:33:46.216Z,8888.00
2023-05-21T06:34:46.087Z,9100.00
2023-05-21T06:35:46.023Z,9264.00
2023-05-21T06:36:46.033Z,9320.00
2023-05-21T06:37:46.037Z,9472.00
2023-05-21T06:38:46.022Z,9572.00
2023-05-21T06:39:45.984Z,9744.00
2023-05-21T06:40:46.014Z,9928.00
2023-05-21T06:41:45.989Z,10152.00
2023-05-21T06:42:45.953Z,10328.00
2023-05-21T06:43:45.959Z,10436.00
2023-05-21T06:44:46.004Z,10756.00
2023-05-21T06:45:45.986Z,11204.00
2023-05-21T06:46:46.969Z,11860.00
2023-05-21T06:47:46.034Z,12232.00
2023-05-21T06:48:45.943Z,12492.00
2023-05-21T06:49:45.956Z,13172.00
2023-05-21T06:50:45.935Z,14596.00
2023-05-21T06:51:45.952Z,25824.00
2023-05-21T06:52:45.891Z,44544.00
2023-05-21T06:53:45.867Z,50240.00
2023-05-21T06:54:45.881Z,44288.00
2023-05-21T06:55:46.003Z,37024.00
2023-05-21T06:56:45.936Z,34048.00
2023-05-21T06:57:45.833Z,33440.00
2023-05-21T06:58:45.913Z,42624.00
2023-05-21T06:59:45.901Z,36032.00
2023-05-21T07:00:45.927Z,49632.00
2023-05-21T07:01:46.381Z,49152.00
2023-05-21T07:02:46.004Z,46368.00
2023-05-21T07:03:46.669Z,42848.00
2023-05-21T07:04:45.923Z,34976.00
2023-05-21T07:05:45.994Z,30208.00
2023-05-21T07:06:45.915Z,28896.00
2023-05-21T07:07:46.527Z,27840.00
2023-05-21T07:08:45.863Z,26624.00
2023-05-21T07:09:45.833Z,24736.00
2023-05-21T07:10:45.828Z,22592.00
2023-05-21T07:11:45.746Z,23840.00
2023-05-21T07:12:45.762Z,23136.00
2023-05-21T07:13:45.801Z,22016.00
2023-05-21T07:14:46.376Z,25856.00
2023-05-21T07:15:45.800Z,28736.00
2023-05-21T07:16:45.819Z,40896.00
2023-05-21T07:17:45.809Z,37184.00
2023-05-21T07:18:45.858Z,38592.00
2023-05-21T07:19:45.758Z,30528.00
2023-05-21T07:20:45.787Z,29376.00
2023-05-21T07:21:45.791Z,33472.00
2023-05-21T07:22:46.412Z,33504.00
2023-05-21T07:23:45.735Z,37408.00
2023-05-21T07:24:45.661Z,38912.00
2023-05-21T07:25:45.681Z,36128.00
2023-05-21T07:26:45.680Z,34944.00
2023-05-21T07:27:45.689Z,33632.00
2023-05-21T07:28:45.655Z,31072.00
2023-05-21T07:29:45.641Z,31424.00
2023-05-21T07:30:45.853Z,27584.00
2023-05-21T07:31:45.672Z,28448.00
2023-05-21T07:32:46.537Z,28032.00
2023-05-21T07:33:45.647Z,32960.00
2023-05-21T07:34:45.644Z,39488.00
2023-05-21T07:35:46.474Z,32832.00
2023-05-21T07:36:45.562Z,32896.00
2023-05-21T07:37:46.429Z,32448.00
2023-05-21T07:38:45.559Z,29536.00
2023-05-21T07:39:45.593Z,27424.00
2023-05-21T07:40:45.598Z,26720.00
2023-05-21T07:41:45.566Z,25376.00
2023-05-21T07:42:45.558Z,24320.00
2023-05-21T07:43:45.712Z,25792.00
2023-05-21T07:44:45.597Z,27264.00
2023-05-21T07:45:45.560Z,30208.00
2023-05-21T07:46:45.765Z,36320.00
2023-05-21T07:47:45.592Z,38592.00
2023-05-21T07:48:47.397Z,43840.00
2023-05-21T07:49:45.457Z,48416.00
2023-05-21T07:50:45.443Z,51616.00
2023-05-21T07:51:45.462Z,52160.00
2023-05-21T07:52:45.566Z,50176.00
2023-05-21T07:53:45.417Z,47168.00
2023-05-21T07:54:45.446Z,42848.00
2023-05-21T07:55:45.422Z,42688.00
2023-05-21T07:56:45.385Z,40416.00
2023-05-21T07:57:45.435Z,45024.00
2023-05-21T07:58:45.368Z,42560.00
2023-05-21T07:59:45.386Z,45152.00
2023-05-21T08:00:45.364Z,40448.00
2023-05-21T08:01:45.356Z,34208.00
2023-05-21T08:02:45.468Z,28704.00
2023-05-21T08:03:45.446Z,26336.00
2023-05-21T08:04:45.441Z,25152.00
2023-05-21T08:05:45.359Z,24640.00
2023-05-21T08:06:45.360Z,23712.00
2023-05-21T08:07:45.377Z,23616.00
2023-05-21T08:08:45.325Z,23488.00
2023-05-21T08:09:45.326Z,23744.00
2023-05-21T08:10:45.306Z,24544.00
2023-05-21T08:11:45.306Z,24544.00
2023-05-21T08:12:45.339Z,24384.00
2023-05-21T08:13:45.314Z,23776.00
2023-05-21T08:14:45.283Z,23552.00
2023-05-21T08:15:45.286Z,23552.00
2023-05-21T08:16:45.368Z,23936.00
2023-05-21T08:17:45.363Z,24448.00
2023-05-21T08:18:45.279Z,25024.00
2023-05-21T08:19:45.251Z,25952.00
2023-05-21T08:20:45.254Z,25824.00
2023-05-21T08:21:45.283Z,26016.00
2023-05-21T08:22:45.268Z,26528.00
2023-05-21T08:23:46.321Z,26656.00
2023-05-21T08:24:45.259Z,26240.00
2023-05-21T08:25:45.285Z,25024.00
2023-05-21T08:26:45.161Z,25632.00
2023-05-21T08:27:45.191Z,26592.00
2023-05-21T08:28:45.145Z,25344.00
2023-05-21T08:29:45.198Z,25088.00
2023-05-21T08:30:45.152Z,25472.00
2023-05-21T08:31:45.193Z,25440.00
2023-05-21T08:32:45.218Z,24960.00
2023-05-21T08:33:45.435Z,24160.00
2023-05-21T08:34:45.165Z,23520.00
2023-05-21T08:35:45.107Z,22880.00
2023-05-21T08:37:18.080Z,22560.00
2023-05-21T08:37:45.156Z,22144.00
2023-05-21T08:38:45.108Z,21920.00
2023-05-21T08:39:45.095Z,22112.00
2023-05-21T08:40:45.077Z,21792.00
2023-05-21T08:41:45.078Z,21632.00
2023-05-21T08:42:45.098Z,21376.00
2023-05-21T08:43:45.061Z,20576.00
2023-05-21T08:44:45.100Z,20608.00
2023-05-21T08:45:45.043Z,20608.00
2023-05-21T08:46:45.028Z,21984.00
2023-05-21T08:47:45.042Z,22016.00
2023-05-21T08:48:45.035Z,21888.00
2023-05-21T08:50:17.900Z,21856.00
2023-05-21T08:50:45.000Z,22560.00
2023-05-21T08:51:45.948Z,23488.00
2023-05-21T08:52:44.959Z,23552.00
2023-05-21T08:53:44.989Z,23680.00
2023-05-21T08:54:45.022Z,24192.00
2023-05-21T08:55:44.996Z,24608.00
2023-05-21T08:56:45.426Z,24800.00
2023-05-21T08:57:44.975Z,25216.00
2023-05-21T08:58:44.952Z,25408.00
2023-05-21T08:59:44.932Z,25824.00
2023-05-21T09:00:44.899Z,25920.00
2023-05-21T09:01:46.051Z,25856.00
2023-05-21T09:02:44.953Z,25824.00
2023-05-21T09:03:44.945Z,26368.00
2023-05-21T09:04:44.961Z,26368.00
2023-05-21T09:05:44.887Z,26176.00
2023-05-21T09:06:44.884Z,26176.00
2023-05-21T09:07:44.888Z,25344.00
2023-05-21T09:08:44.873Z,25056.00
2023-05-21T09:09:44.887Z,24544.00
2023-05-21T09:10:44.887Z,23904.00
2023-05-21T09:11:44.844Z,23040.00
2023-05-21T09:12:44.838Z,21632.00
2023-05-21T09:13:44.833Z,21408.00
2023-05-21T09:14:44.859Z,20160.00
2023-05-21T09:15:44.778Z,19968.00
2023-05-21T09:16:44.821Z,20480.00
2023-05-21T09:17:44.845Z,21120.00
2023-05-21T09:18:44.803Z,21056.00
2023-05-21T09:19:44.784Z,21632.00
2023-05-21T09:20:44.758Z,20928.00
2023-05-21T09:21:44.800Z,20512.00
2023-05-21T09:22:44.777Z,20352.00
2023-05-21T09:23:44.761Z,20192.00
2023-05-21T09:24:44.838Z,21088.00
2023-05-21T09:25:44.748Z,21856.00
2023-05-21T09:26:44.744Z,21728.00
2023-05-21T09:27:44.732Z,21440.00
2023-05-21T09:28:44.735Z,22240.00
2023-05-21T09:29:44.713Z,21440.00
2023-05-21T09:30:44.764Z,21984.00
2023-05-21T09:31:44.808Z,21984.00
2023-05-21T09:32:44.704Z,21920.00
2023-05-21T09:33:44.682Z,21536.00
2023-05-21T09:34:44.651Z,20672.00
2023-05-21T09:35:44.703Z,19168.00
2023-05-21T09:36:44.673Z,18720.00
2023-05-21T09:37:44.695Z,18336.00
2023-05-21T09:38:44.710Z,18208.00
2023-05-21T09:39:44.637Z,17888.00
2023-05-21T09:40:44.693Z,18336.00
2023-05-21T09:41:44.639Z,18048.00
2023-05-21T09:42:44.664Z,17504.00
2023-05-21T09:43:44.666Z,16800.00
2023-05-21T09:44:44.626Z,16384.00
2023-05-21T09:45:44.628Z,16096.00
2023-05-21T09:46:44.663Z,15936.00
2023-05-21T09:47:44.683Z,15664.00
2023-05-21T09:48:44.560Z,15496.00
2023-05-21T09:49:44.540Z,15484.00
2023-05-21T09:50:44.551Z,15464.00
2023-05-21T09:51:44.560Z,15448.00
2023-05-21T09:52:44.580Z,15540.00
2023-05-21T09:53:44.569Z,15088.00
2023-05-21T09:54:45.415Z,14848.00
2023-05-21T09:55:44.559Z,15156.00
2023-05-21T09:56:44.577Z,15388.00
2023-05-21T09:57:44.518Z,15424.00
2023-05-21T09:58:44.513Z,15532.00
2023-05-21T09:59:44.545Z,15640.00
2023-05-21T10:00:44.530Z,16576.00
2023-05-21T10:01:44.527Z,16832.00
2023-05-21T10:02:44.595Z,17056.00
2023-05-21T10:03:44.520Z,17184.00
2023-05-21T10:04:44.554Z,17600.00
2023-05-21T10:05:44.454Z,18656.00
2023-05-21T10:06:44.478Z,18432.00
2023-05-21T10:07:44.475Z,18400.00
2023-05-21T10:08:44.427Z,18208.00
2023-05-21T10:09:44.473Z,18016.00
2023-05-21T10:10:44.433Z,17888.00
2023-05-21T10:11:44.444Z,17824.00
2023-05-21T10:12:44.402Z,17760.00
2023-05-21T10:13:44.388Z,17536.00
2023-05-21T10:14:44.393Z,17312.00
2023-05-21T10:15:44.445Z,17792.00
2023-05-21T10:16:44.578Z,17696.00
2023-05-21T10:17:44.444Z,17888.00
2023-05-21T10:18:44.431Z,17760.00
2023-05-21T10:19:44.352Z,17632.00
2023-05-21T10:20:44.372Z,17664.00
2023-05-21T10:21:44.355Z,17760.00
2023-05-21T10:22:44.324Z,17984.00
2023-05-21T10:23:45.337Z,17952.00
2023-05-21T10:24:44.342Z,17824.00
2023-05-21T10:25:44.448Z,17600.00
2023-05-21T10:26:44.293Z,17248.00
2023-05-21T10:27:44.308Z,17088.00
2023-05-21T10:28:44.361Z,16896.00
2023-05-21T10:29:44.329Z,16864.00
2023-05-21T10:30:44.311Z,16480.00
2023-05-21T10:31:44.305Z,16480.00
2023-05-21T10:32:44.380Z,16448.00
2023-05-21T10:33:44.255Z,16000.00
2023-05-21T10:34:44.245Z,15776.00
2023-05-21T10:35:44.245Z,15648.00
2023-05-21T10:36:44.274Z,15228.00
2023-05-21T10:37:44.210Z,14940.00
2023-05-21T10:38:44.211Z,15048.00
2023-05-21T10:39:44.226Z,15252.00
2023-05-21T10:40:44.198Z,15068.00
2023-05-21T10:41:44.189Z,15112.00
2023-05-21T10:42:44.199Z,14944.00
2023-05-21T10:43:44.190Z,14856.00
2023-05-21T10:44:44.189Z,14908.00
2023-05-21T10:45:44.249Z,14916.00
2023-05-21T10:46:44.221Z,14844.00
2023-05-21T10:47:44.196Z,14852.00
2023-05-21T10:48:44.189Z,14560.00
2023-05-21T10:49:44.167Z,14328.00
2023-05-21T10:50:44.125Z,14928.00
2023-05-21T10:51:44.155Z,14908.00
2023-05-21T10:52:44.126Z,14704.00
2023-05-21T10:53:44.164Z,14656.00
2023-05-21T10:54:44.101Z,15488.00
2023-05-21T10:55:44.070Z,14764.00
2023-05-21T10:56:44.172Z,14856.00
2023-05-21T10:57:44.166Z,14536.00
2023-05-21T10:58:46.972Z,14740.00
2023-05-21T10:59:44.105Z,14960.00
2023-05-21T11:00:44.081Z,14988.00
2023-05-21T11:01:44.157Z,14856.00
2023-05-21T11:02:44.198Z,14688.00
2023-05-21T11:03:44.201Z,14744.00
2023-05-21T11:04:44.045Z,13228.00
2023-05-21T11:05:44.044Z,12548.00
2023-05-21T11:06:44.086Z,14804.00
2023-05-21T11:07:44.000Z,14944.00
2023-05-21T11:08:44.020Z,15136.00
2023-05-21T11:09:43.997Z,15104.00
2023-05-21T11:10:43.988Z,15360.00
2023-05-21T11:11:44.051Z,14676.00
2023-05-21T11:12:43.996Z,14596.00
2023-05-21T11:13:44.011Z,14336.00
2023-05-21T11:14:43.982Z,14072.00
2023-05-21T11:15:43.998Z,13984.00
2023-05-21T11:16:43.969Z,13980.00
2023-05-21T11:17:44.003Z,13836.00
2023-05-21T11:18:43.940Z,13792.00
2023-05-21T11:19:44.086Z,13848.00
2023-05-21T11:20:43.909Z,13828.00
2023-05-21T11:21:43.981Z,13280.00
2023-05-21T11:22:44.022Z,13328.00
2023-05-21T11:23:43.894Z,13452.00
2023-05-21T11:24:43.956Z,13496.00
2023-05-21T11:25:43.899Z,13156.00
2023-05-21T11:26:43.894Z,12980.00
2023-05-21T11:27:43.906Z,12860.00
2023-05-21T11:28:43.871Z,12832.00
2023-05-21T11:29:43.889Z,12672.00
2023-05-21T11:30:43.974Z,12784.00
2023-05-21T11:31:43.996Z,13296.00
2023-05-21T11:32:43.898Z,13480.00
2023-05-21T11:33:43.811Z,13524.00
2023-05-21T11:34:43.890Z,13264.00
2023-05-21T11:35:43.818Z,13216.00
2023-05-21T11:36:43.813Z,12852.00
2023-05-21T11:37:43.877Z,12496.00
2023-05-21T11:38:43.831Z,12584.00
2023-05-21T11:39:43.862Z,12668.00
2023-05-21T11:40:43.799Z,12504.00
2023-05-21T11:41:43.812Z,12048.00
2023-05-21T11:42:43.763Z,12348.00
2023-05-21T11:43:43.784Z,12064.00
2023-05-21T11:44:44.791Z,12132.00
2023-05-21T11:45:43.755Z,11968.00
2023-05-21T11:46:43.761Z,11504.00
2023-05-21T11:47:43.781Z,11648.00
2023-05-21T11:48:43.741Z,11676.00
2023-05-21T11:49:43.760Z,11300.00
2023-05-21T11:50:43.730Z,11528.00
2023-05-21T11:51:43.709Z,11636.00
2023-05-21T11:52:43.683Z,11712.00
2023-05-21T11:53:44.292Z,11908.00
2023-05-21T11:54:44.735Z,11988.00
2023-05-21T11:55:43.925Z,12108.00
2023-05-21T11:56:43.714Z,12148.00
2023-05-21T11:57:43.702Z,12216.00
2023-05-21T11:58:43.679Z,12212.00
2023-05-21T11:59:43.653Z,12120.00
2023-05-21T12:00:43.689Z,12284.00
2023-05-21T12:01:43.684Z,12440.00
2023-05-21T12:02:43.660Z,12544.00
2023-05-21T12:03:43.749Z,12684.00
2023-05-21T12:04:43.613Z,12692.00
2023-05-21T12:05:43.652Z,12748.00
2023-05-21T12:06:43.616Z,12596.00
2023-05-21T12:07:43.585Z,12380.00
2023-05-21T12:08:43.570Z,11964.00
2023-05-21T12:09:43.598Z,11660.00
2023-05-21T12:10:45.035Z,11400.00
2023-05-21T12:11:44.556Z,11348.00
2023-05-21T12:12:54.916Z,10896.00
2023-05-21T12:13:45.567Z,10660.00
2023-05-21T12:14:44.537Z,10620.00
2023-05-21T12:15:43.583Z,10628.00
2023-05-21T12:16:43.629Z,11036.00
2023-05-21T12:17:43.560Z,10548.00
2023-05-21T12:18:43.556Z,10408.00
2023-05-21T12:19:43.519Z,10464.00
2023-05-21T12:20:43.495Z,10152.00
2023-05-21T12:21:43.530Z,10216.00
2023-05-21T12:22:43.536Z,10320.00
2023-05-21T12:23:44.507Z,10484.00
2023-05-21T12:24:43.507Z,10540.00
2023-05-21T12:25:43.472Z,10524.00
2023-05-21T12:26:43.516Z,10996.00
2023-05-21T12:27:43.487Z,10968.00
2023-05-21T12:28:43.479Z,10768.00